Time;durP1;ratioP1;P1;durP2;ratioP2;P2;SDS_P1;SDS_P2;PMS_P1;PMS_P2;Temp;Humidity;BMP_temperature;BMP_pressure;BME280_temperature;BME280_humidity;BME280_pressure;Samples;Min_cycle;Max_cycle;Signal;HPM_P1;HPM_P2
2021/12/11 00:00:33;;;;;;;6.50;3.60;;;4.30;84.10;;;;;;5060712;28;20040;-73
2021/12/11 00:03:12;;;;;;;7.78;3.13;;;4.30;84.20;;;;;;5066586;28;20127;-72
2021/12/11 00:05:43;;;;;;;8.35;3.33;;;4.30;84.20;;;;;;5066537;28;20136;-72
2021/12/11 00:08:15;;;;;;;6.53;4.03;;;4.30;84.20;;;;;;5064978;28;20110;-72
2021/12/11 00:10:54;;;;;;;6.40;3.15;;;4.30;84.20;;;;;;5024625;28;20044;-72
2021/12/11 00:13:32;;;;;;;1.27;0.70;;;4.30;84.20;;;;;;978753;28;10002303;-71
2021/12/11 00:15:59;;;;;;;10.30;3.55;;;4.30;84.30;;;;;;5065318;28;20536;-72
2021/12/11 00:18:33;;;;;;;6.75;3.33;;;4.30;84.30;;;;;;5064858;28;20066;-73
2021/12/11 00:21:04;;;;;;;9.55;4.85;;;4.20;84.30;;;;;;5066686;28;20048;-72
2021/12/11 00:23:35;;;;;;;10.05;5.28;;;4.30;84.30;;;;;;5063044;28;20598;-73
2021/12/11 00:26:05;;;;;;;10.55;4.88;;;4.30;84.30;;;;;;5063763;28;20041;-70
2021/12/11 00:28:32;;;;;;;8.18;4.38;;;4.30;84.30;;;;;;5063184;28;20410;-71
2021/12/11 00:31:00;;;;;;;9.07;4.47;;;4.30;84.30;;;;;;5064269;28;20042;-72
2021/12/11 00:33:34;;;;;;;8.02;4.53;;;4.30;84.30;;;;;;5062744;28;20125;-70
2021/12/11 00:36:08;;;;;;;9.07;4.28;;;4.30;84.30;;;;;;5064381;28;20045;-71
2021/12/11 00:38:40;;;;;;;10.73;5.15;;;4.30;84.40;;;;;;5062289;28;20057;-71
2021/12/11 00:41:12;;;;;;;8.48;4.43;;;4.30;84.40;;;;;;5060602;28;20048;-72
2021/12/11 00:43:41;;;;;;;9.07;4.53;;;4.30;84.40;;;;;;5054380;28;20074;-70
2021/12/11 00:46:14;;;;;;;7.50;3.80;;;4.30;84.40;;;;;;5055878;28;20068;-73
2021/12/11 00:48:42;;;;;;;10.40;4.20;;;4.30;84.40;;;;;;5049686;28;20068;-71
2021/12/11 00:51:13;;;;;;;9.07;4.40;;;4.30;84.50;;;;;;5057872;28;21353;-71
2021/12/11 00:53:43;;;;;;;11.13;4.90;;;4.20;84.60;;;;;;5044557;28;20340;-72
2021/12/11 00:56:16;;;;;;;9.50;4.35;;;4.20;84.70;;;;;;5050568;28;20472;-71
2021/12/11 00:58:44;;;;;;;8.30;4.03;;;4.30;84.70;;;;;;5053285;28;20547;-71
2021/12/11 01:01:15;;;;;;;10.32;4.95;;;4.20;84.80;;;;;;5053534;28;20046;-69
2021/12/11 01:03:48;;;;;;;8.40;4.05;;;4.20;84.80;;;;;;5057469;28;20036;-70
2021/12/11 01:06:19;;;;;;;7.32;3.75;;;4.20;84.90;;;;;;5058132;28;20240;-71
2021/12/11 01:08:54;;;;;;;7.93;4.03;;;4.20;84.90;;;;;;5058741;28;20051;-71
2021/12/11 01:11:28;;;;;;;8.10;3.90;;;4.20;84.90;;;;;;5050527;28;20060;-70
2021/12/11 01:14:07;;;;;;;7.65;3.80;;;4.20;84.80;;;;;;5064260;28;20053;-70
2021/12/11 01:16:34;;;;;;;8.65;4.28;;;4.20;84.90;;;;;;5062167;28;20048;-71
2021/12/11 01:19:04;;;;;;;7.28;3.78;;;4.20;84.70;;;;;;5059494;28;20051;-71
2021/12/11 01:21:44;;;;;;;10.45;3.83;;;4.20;84.80;;;;;;5062503;28;20048;-71
2021/12/11 01:24:27;;;;;;;8.90;3.90;;;4.20;84.80;;;;;;5063318;28;20139;-70
2021/12/11 01:26:57;;;;;;;11.77;4.45;;;4.20;84.70;;;;;;5059730;28;20370;-70
2021/12/11 01:29:25;;;;;;;7.03;3.83;;;4.20;84.80;;;;;;5062153;28;20045;-71
2021/12/11 01:31:55;;;;;;;7.82;3.92;;;4.20;84.90;;;;;;5063434;28;20056;-71
2021/12/11 01:34:23;;;;;;;7.75;4.10;;;4.20;84.90;;;;;;5061864;28;20052;-71
2021/12/11 01:36:51;;;;;;;8.25;3.78;;;4.20;84.90;;;;;;5063317;28;20040;-71
2021/12/11 01:39:22;;;;;;;9.98;4.97;;;4.20;85.00;;;;;;5058987;28;21050;-71
2021/12/11 01:41:51;;;;;;;8.13;3.78;;;4.20;85.00;;;;;;5062087;28;20044;-71
2021/12/11 01:44:26;;;;;;;8.25;4.05;;;4.20;84.90;;;;;;5062189;28;20301;-73
2021/12/11 01:46:58;;;;;;;9.65;3.72;;;4.20;85.00;;;;;;5057870;28;20132;-70
2021/12/11 01:49:25;;;;;;;9.57;4.03;;;4.20;84.90;;;;;;5063661;28;20053;-72
2021/12/11 01:51:57;;;;;;;9.05;4.22;;;4.20;85.00;;;;;;5064773;28;20063;-71
2021/12/11 01:54:28;;;;;;;7.28;3.67;;;4.20;85.10;;;;;;5064995;28;20512;-72
2021/12/11 01:57:00;;;;;;;7.38;3.90;;;4.20;85.00;;;;;;5062198;28;20048;-72
2021/12/11 01:59:37;;;;;;;7.30;3.80;;;4.20;85.10;;;;;;5066642;28;20048;-71
2021/12/11 02:02:05;;;;;;;;;;;4.20;85.00;;;;;;5065288;28;20166;-72
2021/12/11 02:04:39;;;;;;;6.22;3.03;;;4.20;85.00;;;;;;5066376;28;19928;-72
2021/12/11 02:07:12;;;;;;;8.10;4.07;;;4.20;85.00;;;;;;5063536;28;20041;-72
2021/12/11 02:09:43;;;;;;;10.40;3.67;;;4.20;85.10;;;;;;5065846;28;20722;-72
2021/12/11 02:12:15;;;;;;;5.95;3.03;;;4.20;85.00;;;;;;5061948;28;20086;-72
2021/12/11 02:14:49;;;;;;;5.63;3.30;;;4.20;85.00;;;;;;5063197;28;20045;-71
2021/12/11 02:17:20;;;;;;;6.68;3.63;;;4.20;85.00;;;;;;5060848;28;20052;-72
2021/12/11 02:19:49;;;;;;;9.45;3.33;;;4.20;85.10;;;;;;5054867;28;20048;-73
2021/12/11 02:22:20;;;;;;;6.40;3.42;;;4.20;85.10;;;;;;5058788;28;20048;-71
2021/12/11 02:24:50;;;;;;;6.47;3.58;;;4.20;85.10;;;;;;5062244;28;20094;-71
2021/12/11 02:27:20;;;;;;;8.57;3.58;;;4.20;85.10;;;;;;5058339;28;20358;-72
2021/12/11 02:29:53;;;;;;;8.40;3.83;;;4.20;85.10;;;;;;5060269;28;20047;-71
2021/12/11 02:32:29;;;;;;;8.93;3.85;;;4.20;85.10;;;;;;5060418;28;20052;-73
2021/12/11 02:35:04;;;;;;;7.35;3.47;;;4.20;85.10;;;;;;5058916;28;20056;-71
2021/12/11 02:37:38;;;;;;;8.35;3.72;;;4.20;85.10;;;;;;5060173;28;20118;-71
2021/12/11 02:40:14;;;;;;;10.45;3.85;;;4.20;85.10;;;;;;5059266;28;20555;-71
2021/12/11 02:42:51;;;;;;;5.78;3.20;;;4.20;85.00;;;;;;5057631;28;20049;-71
2021/12/11 02:45:22;;;;;;;9.35;3.70;;;4.20;85.00;;;;;;5061392;28;20052;-71
2021/12/11 02:47:52;;;;;;;7.57;4.15;;;4.20;85.00;;;;;;5059617;28;20044;-71
2021/12/11 02:50:26;;;;;;;6.60;3.58;;;4.20;85.00;;;;;;5054283;28;20041;-72
2021/12/11 02:52:59;;;;;;;7.55;3.70;;;4.20;85.00;;;;;;5064972;28;20075;-71
2021/12/11 02:55:34;;;;;;;9.00;4.18;;;4.20;85.00;;;;;;5059687;28;20052;-71
2021/12/11 02:58:16;;;;;;;14.00;4.85;;;4.20;85.00;;;;;;5060920;28;20048;-72
2021/12/11 03:00:46;;;;;;;9.45;3.90;;;4.20;85.00;;;;;;5061103;28;20091;-72
2021/12/11 03:03:17;;;;;;;7.18;3.97;;;4.20;85.00;;;;;;5058893;28;20055;-73
2021/12/11 03:05:54;;;;;;;7.60;4.13;;;4.20;85.00;;;;;;5063290;28;20053;-72
2021/12/11 03:08:23;;;;;;;8.88;3.72;;;4.20;85.00;;;;;;5056528;28;20524;-71
2021/12/11 03:10:54;;;;;;;8.07;4.35;;;4.20;85.10;;;;;;5062400;28;20048;-72
2021/12/11 03:13:22;;;;;;;9.30;4.13;;;4.20;85.10;;;;;;5057800;28;20049;-72
2021/12/11 03:15:50;;;;;;;6.75;3.67;;;4.20;85.10;;;;;;5058218;28;20138;-71
2021/12/11 03:18:17;;;;;;;9.90;4.40;;;4.20;85.10;;;;;;5059095;28;20061;-71
2021/12/11 03:20:46;;;;;;;9.10;4.47;;;4.20;85.10;;;;;;5058987;28;20044;-71
2021/12/11 03:23:13;;;;;;;8.23;3.53;;;4.20;85.00;;;;;;5060516;28;20660;-69
2021/12/11 03:25:43;;;;;;;9.90;4.18;;;4.20;85.00;;;;;;5057714;28;20130;-70
2021/12/11 03:28:11;;;;;;;9.85;5.10;;;4.20;85.00;;;;;;5058167;28;20052;-71
2021/12/11 03:30:42;;;;;;;8.40;3.58;;;4.20;85.00;;;;;;5059083;28;20555;-72
2021/12/11 03:33:10;;;;;;;;;;;4.20;85.00;;;;;;5060521;28;20055;-72
2021/12/11 03:35:38;;;;;;;7.40;3.40;;;4.20;85.00;;;;;;5059628;28;20393;-70
2021/12/11 03:38:06;;;;;;;6.43;3.42;;;4.20;85.00;;;;;;5060145;28;20048;-72
2021/12/11 03:40:34;;;;;;;6.35;3.95;;;4.20;85.10;;;;;;5057559;28;20055;-71
2021/12/11 03:43:06;;;;;;;8.82;3.97;;;4.20;85.00;;;;;;5059780;28;20048;-71
2021/12/11 03:45:38;;;;;;;7.45;3.85;;;4.20;84.90;;;;;;5058042;28;20060;-72
2021/12/11 03:48:11;;;;;;;8.73;4.18;;;4.20;84.80;;;;;;5060134;28;20084;-72
2021/12/11 03:50:40;;;;;;;11.82;4.78;;;4.20;84.80;;;;;;5059659;28;20133;-73
2021/12/11 03:53:08;;;;;;;7.93;4.18;;;4.20;84.80;;;;;;5060541;28;20041;-72
2021/12/11 03:55:41;;;;;;;9.02;3.95;;;4.20;84.90;;;;;;5055847;28;20067;-72
2021/12/11 03:58:09;;;;;;;7.72;3.63;;;4.20;84.90;;;;;;5056555;28;20047;-71
2021/12/11 04:00:41;;;;;;;8.95;4.10;;;4.20;84.90;;;;;;5057095;28;20486;-73
2021/12/11 04:03:10;;;;;;;8.88;4.50;;;4.20;85.00;;;;;;5060841;28;20038;-72
2021/12/11 04:05:42;;;;;;;10.43;4.22;;;4.10;85.00;;;;;;5058806;28;20037;-71
2021/12/11 04:08:19;;;;;;;6.85;3.70;;;4.20;85.00;;;;;;5059535;28;20052;-72
2021/12/11 04:10:48;;;;;;;8.82;4.35;;;4.20;85.00;;;;;;5058058;28;21180;-70
2021/12/11 04:13:17;;;;;;;8.10;3.92;;;4.20;85.00;;;;;;5059733;28;20049;-72
2021/12/11 04:15:46;;;;;;;7.88;3.85;;;4.20;85.10;;;;;;5056149;28;20055;-73
2021/12/11 04:18:13;;;;;;;6.85;3.42;;;4.10;85.10;;;;;;5055143;28;20587;-73
2021/12/11 04:20:43;;;;;;;8.57;3.85;;;4.20;85.00;;;;;;5055352;28;20481;-72
2021/12/11 04:23:12;;;;;;;7.80;4.22;;;4.20;85.10;;;;;;5057155;28;20044;-71
2021/12/11 04:25:41;;;;;;;6.80;3.92;;;4.20;85.00;;;;;;5059672;28;20559;-73
2021/12/11 04:28:09;;;;;;;7.97;4.35;;;4.20;85.00;;;;;;5058188;28;20046;-72
2021/12/11 04:30:39;;;;;;;8.73;5.03;;;4.20;84.90;;;;;;5055746;28;20127;-70
2021/12/11 04:33:07;;;;;;;8.48;3.83;;;4.10;84.90;;;;;;5057453;28;20049;-71
2021/12/11 04:35:34;;;;;;;7.70;4.05;;;4.10;84.90;;;;;;5055209;28;20048;-71
2021/12/11 04:38:05;;;;;;;7.57;4.55;;;4.20;85.00;;;;;;5055640;28;20044;-71
2021/12/11 04:40:37;;;;;;;8.73;4.53;;;4.10;84.90;;;;;;5055835;28;20059;-72
2021/12/11 04:43:10;;;;;;;6.95;3.72;;;4.20;84.90;;;;;;5055698;28;20041;-71
2021/12/11 04:45:50;;;;;;;9.23;4.15;;;4.10;84.90;;;;;;5068855;28;20048;-71
2021/12/11 04:48:25;;;;;;;8.10;3.92;;;4.10;84.90;;;;;;5057491;28;20037;-71
2021/12/11 04:50:58;;;;;;;9.35;3.45;;;4.20;84.90;;;;;;5053611;28;20453;-71
2021/12/11 04:53:41;;;;;;;8.00;3.65;;;4.10;84.80;;;;;;5057202;28;20056;-72
2021/12/11 04:59:36;;;;;;;11.73;4.20;;;4.10;84.70;;;;;;5122822;27;20632;-71
2021/12/11 05:02:17;;;;;;;8.55;4.25;;;4.10;84.60;;;;;;5105839;28;20043;-72
2021/12/11 05:04:58;;;;;;;7.13;4.07;;;4.10;84.60;;;;;;5108284;28;20035;-72
2021/12/11 05:07:34;;;;;;;7.68;4.35;;;4.00;84.60;;;;;;5110136;28;20254;-72
2021/12/11 05:10:12;;;;;;;8.05;4.03;;;4.00;84.60;;;;;;5104164;28;20177;-71
2021/12/11 05:12:39;;;;;;;7.18;3.92;;;4.00;84.60;;;;;;5106781;28;20499;-72
2021/12/11 05:15:13;;;;;;;8.25;3.78;;;4.00;84.70;;;;;;5107796;28;20039;-71
2021/12/11 05:17:40;;;;;;;9.93;4.45;;;4.00;84.60;;;;;;5109091;27;20096;-72
2021/12/11 05:20:10;;;;;;;6.57;3.75;;;4.10;84.50;;;;;;5109891;28;20178;-72
2021/12/11 05:22:42;;;;;;;9.65;3.88;;;4.10;84.40;;;;;;5109633;28;20035;-72
2021/12/11 05:25:11;;;;;;;8.00;4.60;;;4.10;84.40;;;;;;5112486;28;20043;-72
2021/12/11 05:27:39;;;;;;;8.48;4.40;;;4.10;84.30;;;;;;5111223;28;20070;-71
2021/12/11 05:30:15;;;;;;;9.57;5.07;;;4.10;84.20;;;;;;5107115;28;20047;-72
2021/12/11 05:32:42;;;;;;;10.38;4.45;;;4.10;84.10;;;;;;5108503;28;20040;-72
2021/12/11 05:35:11;;;;;;;8.25;5.18;;;4.10;84.20;;;;;;5110618;28;20044;-71
2021/12/11 05:37:39;;;;;;;8.90;3.97;;;4.00;84.20;;;;;;5108796;28;20046;-72
2021/12/11 05:40:09;;;;;;;9.77;4.68;;;4.00;84.10;;;;;;5115498;28;20043;-72
2021/12/11 05:42:36;;;;;;;9.63;4.50;;;4.10;84.10;;;;;;5095257;28;20978;-70
2021/12/11 05:45:05;;;;;;;7.80;4.45;;;4.00;84.10;;;;;;5092703;28;20043;-74
2021/12/11 05:47:33;;;;;;;8.63;4.47;;;4.00;84.20;;;;;;5092830;28;20036;-72
2021/12/11 05:50:00;;;;;;;9.23;4.50;;;4.00;84.10;;;;;;5093756;28;20118;-73
2021/12/11 05:52:28;;;;;;;8.90;4.63;;;4.10;84.00;;;;;;5094410;28;20036;-72
2021/12/11 05:54:55;;;;;;;9.68;4.85;;;4.10;83.90;;;;;;5092400;28;20467;-72
2021/12/11 05:57:25;;;;;;;10.63;4.07;;;4.10;83.90;;;;;;5094656;28;20052;-72
2021/12/11 05:59:52;;;;;;;9.85;4.45;;;4.10;83.90;;;;;;5103640;28;20044;-71
2021/12/11 06:02:22;;;;;;;11.68;4.53;;;4.10;83.90;;;;;;5100541;28;20042;-71
2021/12/11 06:04:53;;;;;;;9.53;4.07;;;4.00;83.80;;;;;;5092948;28;20055;-71
2021/12/11 06:07:21;;;;;;;;;;;4.10;83.90;;;;;;5093108;28;20059;-71
2021/12/11 06:09:53;;;;;;;11.80;4.28;;;4.00;83.90;;;;;;5083131;28;19924;-71
2021/12/11 06:12:20;;;;;;;7.97;4.25;;;4.10;83.80;;;;;;5078244;28;20123;-72
2021/12/11 06:14:50;;;;;;;7.47;4.05;;;4.00;83.80;;;;;;5077192;28;20051;-70
2021/12/11 06:17:20;;;;;;;10.50;4.70;;;4.00;83.80;;;;;;5078631;28;20044;-70
2021/12/11 06:19:51;;;;;;;7.28;3.63;;;4.10;83.80;;;;;;5077836;28;20102;-71
2021/12/11 06:22:23;;;;;;;9.68;4.55;;;4.10;83.90;;;;;;5060523;28;20386;-72
2021/12/11 06:24:51;;;;;;;8.63;4.03;;;4.10;83.80;;;;;;5080522;28;20401;-72
2021/12/11 06:27:18;;;;;;;9.57;4.35;;;4.10;83.90;;;;;;5076051;28;20051;-71
2021/12/11 06:29:45;;;;;;;9.57;4.63;;;4.10;83.80;;;;;;5074867;28;20051;-71
2021/12/11 06:32:12;;;;;;;6.70;3.53;;;4.00;83.90;;;;;;5081533;28;20055;-71
2021/12/11 06:34:39;;;;;;;8.43;3.92;;;4.10;83.80;;;;;;5058195;28;20048;-70
2021/12/11 06:37:08;;;;;;;10.13;4.30;;;4.00;83.80;;;;;;5080621;28;20044;-71
2021/12/11 06:39:37;;;;;;;9.68;5.47;;;4.00;83.80;;;;;;5079671;28;20051;-71
2021/12/11 06:42:06;;;;;;;6.82;3.97;;;4.00;83.70;;;;;;5076051;28;20428;-70
2021/12/11 06:44:33;;;;;;;8.57;3.75;;;4.00;83.70;;;;;;5079108;28;20036;-71
2021/12/11 06:47:04;;;;;;;7.57;3.60;;;4.00;83.60;;;;;;5076833;28;20036;-71
2021/12/11 06:49:33;;;;;;;7.65;4.00;;;4.00;83.70;;;;;;5079904;28;20044;-71
2021/12/11 06:52:01;;;;;;;7.93;3.75;;;4.00;83.60;;;;;;5079627;28;20051;-69
2021/12/11 06:54:36;;;;;;;12.02;3.97;;;4.00;83.60;;;;;;5084141;28;20101;-71
2021/12/11 06:57:05;;;;;;;9.77;4.15;;;3.90;83.50;;;;;;5078149;28;20036;-71
2021/12/11 06:59:32;;;;;;;9.13;3.83;;;3.90;83.50;;;;;;5076834;28;20040;-72
2021/12/11 07:01:59;;;;;;;6.13;3.15;;;3.90;83.40;;;;;;5075758;28;20036;-70
2021/12/11 07:04:26;;;;;;;8.15;3.67;;;3.80;83.30;;;;;;5079421;28;20402;-71
2021/12/11 07:06:54;;;;;;;9.52;3.83;;;3.80;83.30;;;;;;5081274;28;20127;-71
2021/12/11 07:09:23;;;;;;;8.38;3.92;;;3.80;83.20;;;;;;5079310;28;20072;-71
2021/12/11 07:11:52;;;;;;;9.57;4.35;;;3.70;83.20;;;;;;5079427;28;20044;-71
2021/12/11 07:14:22;;;;;;;9.73;4.00;;;3.70;83.20;;;;;;5079768;28;20044;-73
2021/12/11 07:16:50;;;;;;;8.63;5.18;;;3.70;83.10;;;;;;5079119;28;20044;-72
2021/12/11 07:19:17;;;;;;;9.30;4.57;;;3.70;83.10;;;;;;5079448;28;20263;-70
2021/12/11 07:21:46;;;;;;;10.43;4.57;;;3.70;83.20;;;;;;5076367;28;20040;-72
2021/12/11 07:24:16;;;;;;;8.13;4.43;;;3.70;83.10;;;;;;5083087;28;20040;-72
2021/12/11 07:26:43;;;;;;;9.48;4.35;;;3.60;83.20;;;;;;5076844;28;20051;-70
2021/12/11 07:29:14;;;;;;;11.02;4.28;;;3.60;83.20;;;;;;5081415;28;20051;-70
2021/12/11 07:31:45;;;;;;;7.85;4.07;;;3.70;83.10;;;;;;5078344;28;20561;-71
2021/12/11 07:34:13;;;;;;;;;;;3.60;83.20;;;;;;5075443;28;20044;-71
2021/12/11 07:36:42;;;;;;;9.60;4.57;;;3.60;83.30;;;;;;5078862;28;19920;-71
2021/12/11 07:39:13;;;;;;;10.40;4.70;;;3.60;83.30;;;;;;5081064;28;20055;-72
2021/12/11 07:41:41;;;;;;;12.90;5.88;;;3.60;83.30;;;;;;5078650;28;20032;-71
2021/12/11 07:44:09;;;;;;;9.45;4.93;;;3.50;83.40;;;;;;5080446;28;20089;-71
2021/12/11 07:46:38;;;;;;;9.88;5.22;;;3.60;83.40;;;;;;5078651;28;20055;-71
2021/12/11 07:49:07;;;;;;;10.63;4.93;;;3.60;83.40;;;;;;5073325;28;20043;-71
2021/12/11 07:51:37;;;;;;;10.40;4.25;;;3.60;83.50;;;;;;5061619;28;20058;-71
2021/12/11 07:54:08;;;;;;;9.70;4.85;;;3.60;83.40;;;;;;5077928;28;20177;-72
2021/12/11 07:56:36;;;;;;;9.82;4.55;;;3.60;83.30;;;;;;5078752;28;20718;-72
2021/12/11 07:59:06;;;;;;;10.40;5.05;;;3.60;83.30;;;;;;5074611;28;20048;-71
2021/12/11 08:01:38;;;;;;;7.57;4.30;;;3.60;83.30;;;;;;5072507;28;20582;-69
2021/12/11 08:04:07;;;;;;;8.32;4.25;;;3.60;83.20;;;;;;5077031;28;20047;-72
2021/12/11 08:06:36;;;;;;;8.70;5.43;;;3.50;83.20;;;;;;5077543;28;20047;-69
2021/12/11 08:09:05;;;;;;;9.02;5.28;;;3.60;83.20;;;;;;5080596;28;20054;-69
2021/12/11 08:11:33;;;;;;;9.75;4.63;;;3.50;83.20;;;;;;5074577;28;20040;-71
2021/12/11 08:14:00;;;;;;;9.57;4.57;;;3.50;83.30;;;;;;5074317;28;20040;-71
2021/12/11 08:16:34;;;;;;;10.73;4.90;;;3.50;83.20;;;;;;5073968;28;20040;-70
2021/12/11 08:19:03;;;;;;;7.88;4.03;;;3.50;83.20;;;;;;5075863;28;20050;-71
2021/12/11 08:21:32;;;;;;;8.17;4.03;;;3.50;83.30;;;;;;5055670;28;20105;-71
2021/12/11 08:24:04;;;;;;;8.10;4.60;;;3.50;83.20;;;;;;5077305;28;20478;-71
2021/12/11 08:26:33;;;;;;;9.75;4.75;;;3.50;83.10;;;;;;5076966;28;20047;-72
2021/12/11 08:29:00;;;;;;;7.10;3.50;;;3.50;83.00;;;;;;5075384;28;20068;-73
2021/12/11 08:31:28;;;;;;;9.18;4.15;;;3.50;83.10;;;;;;5078913;28;20567;-71
2021/12/11 08:33:56;;;;;;;7.47;3.97;;;3.50;83.10;;;;;;5079364;28;20063;-72
2021/12/11 08:36:25;;;;;;;7.60;3.80;;;3.50;83.20;;;;;;5061879;28;20050;-71
2021/12/11 08:38:54;;;;;;;7.45;3.88;;;3.50;83.20;;;;;;5079896;28;20067;-71
2021/12/11 08:41:24;;;;;;;8.45;4.10;;;3.50;83.20;;;;;;5077801;28;20040;-69
2021/12/11 08:43:57;;;;;;;;;;;3.40;83.20;;;;;;5078420;28;20044;-71
2021/12/11 08:46:28;;;;;;;8.18;4.05;;;3.50;83.20;;;;;;5075316;28;19920;-71
2021/12/11 08:48:56;;;;;;;;;;;3.50;83.20;;;;;;5078108;28;20280;-72
2021/12/11 08:51:26;;;;;;;11.32;5.97;;;3.50;83.30;;;;;;5066960;28;20001;-71
2021/12/11 08:53:55;;;;;;;12.23;6.27;;;3.50;83.20;;;;;;5079457;28;20050;-71
2021/12/11 08:56:23;;;;;;;14.90;7.82;;;3.40;83.30;;;;;;5058927;28;20478;-72
2021/12/11 08:58:51;;;;;;;16.35;7.85;;;3.50;83.30;;;;;;5074013;28;20386;-71
2021/12/11 09:01:26;;;;;;;15.93;7.00;;;3.50;83.30;;;;;;5075918;28;20452;-70
2021/12/11 09:03:57;;;;;;;15.02;7.88;;;3.50;83.40;;;;;;5077478;28;20050;-70
2021/12/11 09:06:32;;;;;;;12.05;6.22;;;3.50;83.30;;;;;;5076720;28;20039;-70
2021/12/11 09:09:10;;;;;;;13.52;8.02;;;3.60;83.40;;;;;;5078847;28;20048;-71
2021/12/11 09:11:41;;;;;;;13.15;6.82;;;3.60;83.40;;;;;;5078582;28;20123;-71
2021/12/11 09:14:12;;;;;;;10.50;6.80;;;3.60;83.50;;;;;;5078146;28;20123;-71
2021/12/11 09:16:42;;;;;;;9.77;5.43;;;3.70;83.60;;;;;;5079278;28;20076;-71
2021/12/11 09:19:14;;;;;;;9.65;5.53;;;3.70;83.70;;;;;;5074917;28;20123;-71
2021/12/11 09:21:45;;;;;;;11.02;5.97;;;3.70;83.70;;;;;;5054478;28;21026;-71
2021/12/11 09:24:14;;;;;;;;;;;3.80;83.70;;;;;;5079186;28;20033;-72
2021/12/11 09:26:46;;;;;;;14.75;6.30;;;3.90;83.90;;;;;;5075250;28;19928;-71
2021/12/11 09:29:17;;;;;;;14.02;6.38;;;3.90;83.90;;;;;;5076866;28;20123;-72
2021/12/11 09:31:56;;;;;;;14.57;6.90;;;4.00;84.00;;;;;;5073102;28;20044;-70
2021/12/11 09:34:30;;;;;;;11.70;6.18;;;4.00;83.90;;;;;;5077050;28;20128;-70
2021/12/11 09:37:00;;;;;;;15.80;7.82;;;4.10;83.90;;;;;;5074573;28;20040;-70
2021/12/11 09:39:39;;;;;;;23.23;10.90;;;4.00;83.90;;;;;;5076408;28;20043;-71
2021/12/11 09:42:07;;;;;;;20.58;12.73;;;4.10;83.90;;;;;;5075674;28;20051;-71
2021/12/11 09:44:39;;;;;;;23.33;13.18;;;4.10;83.60;;;;;;5074757;28;20040;-70
2021/12/11 09:47:10;;;;;;;23.17;14.13;;;4.20;83.40;;;;;;5076405;28;20609;-71
2021/12/11 09:49:42;;;;;;;18.52;10.75;;;4.20;83.20;;;;;;5075839;28;20123;-70
2021/12/11 09:52:17;;;;;;;17.65;9.82;;;4.20;83.20;;;;;;5078299;28;20037;-72
2021/12/11 09:54:50;;;;;;;19.30;10.13;;;4.20;83.00;;;;;;5079737;28;20043;-70
2021/12/11 09:57:20;;;;;;;17.63;9.45;;;4.20;82.90;;;;;;5072762;28;20384;-72
2021/12/11 09:59:50;;;;;;;;;;;4.30;82.80;;;;;;5083095;28;20063;-71
2021/12/11 10:02:21;;;;;;;14.32;7.80;;;4.30;82.70;;;;;;5085213;28;19965;-70
2021/12/11 10:04:58;;;;;;;14.80;7.35;;;4.30;82.50;;;;;;5081196;28;20085;-70
2021/12/11 10:07:32;;;;;;;17.02;8.48;;;4.30;82.30;;;;;;5081408;28;20048;-70
2021/12/11 10:10:11;;;;;;;14.55;7.38;;;4.30;82.30;;;;;;5081438;28;20052;-70
2021/12/11 10:12:41;;;;;;;19.55;6.78;;;4.40;82.20;;;;;;5077494;28;20131;-71
2021/12/11 10:15:14;;;;;;;19.20;8.43;;;4.30;82.00;;;;;;5081498;28;20123;-71
2021/12/11 10:17:45;;;;;;;14.05;6.60;;;4.40;82.00;;;;;;5081244;28;20048;-71
2021/12/11 10:20:17;;;;;;;14.60;7.32;;;4.40;81.90;;;;;;5080816;28;20042;-72
2021/12/11 10:22:45;;;;;;;13.15;7.47;;;4.40;81.90;;;;;;5079455;28;20071;-70
2021/12/11 10:25:16;;;;;;;13.73;6.40;;;4.40;81.70;;;;;;5078526;28;20045;-73
2021/12/11 10:27:44;;;;;;;16.77;8.00;;;4.40;81.40;;;;;;5078288;28;20047;-70
2021/12/11 10:30:16;;;;;;;19.52;8.75;;;4.40;81.30;;;;;;5079103;28;20047;-71
2021/12/11 10:32:43;;;;;;;19.52;10.50;;;4.40;81.30;;;;;;5081967;28;20492;-71
2021/12/11 10:35:22;;;;;;;17.00;9.35;;;4.40;81.20;;;;;;5080376;28;20036;-72
2021/12/11 10:37:49;;;;;;;16.67;8.63;;;4.40;81.10;;;;;;5080285;28;20071;-71
2021/12/11 10:40:20;;;;;;;15.18;8.45;;;4.40;80.90;;;;;;5063717;28;20689;-70
2021/12/11 10:42:52;;;;;;;15.90;7.47;;;4.40;80.90;;;;;;5080099;28;20036;-71
2021/12/11 10:45:21;;;;;;;19.73;8.50;;;4.50;80.70;;;;;;5079297;28;20101;-69
2021/12/11 10:47:51;;;;;;;13.13;7.70;;;4.50;80.70;;;;;;5081358;28;20047;-71
2021/12/11 10:50:26;;;;;;;18.13;8.33;;;4.50;80.70;;;;;;5063464;28;20036;-71
2021/12/11 10:52:53;;;;;;;18.50;9.25;;;4.50;80.40;;;;;;5079481;28;20496;-71
2021/12/11 10:55:26;;;;;;;17.10;7.18;;;4.60;80.40;;;;;;5078921;28;20112;-72
2021/12/11 10:57:54;;;;;;;16.92;8.13;;;4.50;80.30;;;;;;5078947;28;20048;-71
2021/12/11 11:00:29;;;;;;;15.10;6.30;;;4.60;80.40;;;;;;5068782;28;20436;-72
2021/12/11 11:02:56;;;;;;;14.55;7.05;;;4.60;80.30;;;;;;5075542;28;20047;-73
2021/12/11 11:05:26;;;;;;;15.05;7.00;;;4.60;80.20;;;;;;5078849;28;20051;-72
2021/12/11 11:07:53;;;;;;;13.65;6.60;;;4.60;80.30;;;;;;5078669;28;20119;-72
2021/12/11 11:10:25;;;;;;;16.50;8.07;;;4.50;80.30;;;;;;5080254;28;20214;-70
2021/12/11 11:12:53;;;;;;;16.38;8.18;;;4.60;80.40;;;;;;5078938;28;21624;-75
2021/12/11 11:15:22;;;;;;;16.58;6.97;;;4.60;80.30;;;;;;5062780;28;20125;-72
2021/12/11 11:17:52;;;;;;;19.00;7.68;;;4.60;80.20;;;;;;5077819;28;20040;-72
2021/12/11 11:20:23;;;;;;;16.52;7.60;;;4.60;80.00;;;;;;5077876;28;20036;-73
2021/12/11 11:22:50;;;;;;;15.65;7.38;;;4.60;80.00;;;;;;5079628;28;20058;-71
2021/12/11 11:25:21;;;;;;;17.77;7.68;;;4.60;80.10;;;;;;5081603;28;20043;-73
2021/12/11 11:27:57;;;;;;;14.95;7.03;;;4.60;80.20;;;;;;5075327;28;20044;-73
2021/12/11 11:30:31;;;;;;;14.25;6.97;;;4.60;80.20;;;;;;5078044;28;20052;-71
2021/12/11 11:33:02;;;;;;;24.00;9.27;;;4.60;80.10;;;;;;5076210;28;20583;-74
2021/12/11 11:35:32;;;;;;;20.80;6.93;;;4.70;80.00;;;;;;5078828;28;20055;-72
2021/12/11 11:38:03;;;;;;;14.63;7.65;;;4.60;79.80;;;;;;5077459;28;20375;-72
2021/12/11 11:40:34;;;;;;;13.48;7.32;;;4.70;79.90;;;;;;5076158;28;20202;-72
2021/12/11 11:43:04;;;;;;;14.70;5.65;;;4.70;79.80;;;;;;5055860;28;20405;-72
2021/12/11 11:45:33;;;;;;;12.80;5.70;;;4.70;79.60;;;;;;5077285;28;20097;-72
2021/12/11 11:48:02;;;;;;;15.50;6.68;;;4.70;79.50;;;;;;5073156;28;20048;-73
2021/12/11 11:50:33;;;;;;;19.00;8.07;;;4.70;79.40;;;;;;5078481;28;20138;-71
2021/12/11 11:53:00;;;;;;;;;;;4.70;79.30;;;;;;5076913;28;20047;-72
2021/12/11 11:55:38;;;;;;;14.70;6.20;;;4.70;79.20;;;;;;5082465;28;20296;-72
2021/12/11 11:58:07;;;;;;;15.75;6.80;;;4.70;79.30;;;;;;5077278;28;20049;-73
2021/12/11 12:00:42;;;;;;;16.77;6.15;;;4.70;79.00;;;;;;5073705;28;20052;-74
2021/12/11 12:03:13;;;;;;;14.27;6.43;;;4.70;79.00;;;;;;5078182;28;20040;-71
2021/12/11 12:05:42;;;;;;;15.60;5.93;;;4.70;78.90;;;;;;5080279;28;20044;-72
2021/12/11 12:08:12;;;;;;;10.88;5.15;;;4.80;78.50;;;;;;5077632;28;20059;-72
2021/12/11 12:10:39;;;;;;;14.45;5.55;;;4.80;78.60;;;;;;5080532;28;20040;-71
2021/12/11 12:13:07;;;;;;;11.98;4.65;;;4.80;78.50;;;;;;5077881;28;20267;-72
2021/12/11 12:15:39;;;;;;;13.75;6.03;;;4.70;78.20;;;;;;5077334;28;20141;-71
2021/12/11 12:18:06;;;;;;;12.45;5.13;;;4.70;78.40;;;;;;5076785;28;20155;-73
2021/12/11 12:20:35;;;;;;;12.25;5.35;;;4.70;78.40;;;;;;5080156;28;20044;-71
2021/12/11 12:23:04;;;;;;;11.48;5.25;;;4.80;78.60;;;;;;5077209;28;20112;-72
2021/12/11 12:25:32;;;;;;;10.60;5.70;;;4.70;78.70;;;;;;5082414;28;20048;-72
2021/12/11 12:27:59;;;;;;;12.98;5.57;;;4.80;78.70;;;;;;5079412;28;20493;-71
2021/12/11 12:30:35;;;;;;;13.60;6.30;;;4.80;78.70;;;;;;5076885;28;20123;-72
2021/12/11 12:33:04;;;;;;;14.25;5.10;;;4.90;78.90;;;;;;5076387;28;20118;-72
2021/12/11 12:35:31;;;;;;;13.15;5.68;;;4.90;78.80;;;;;;5076739;28;20044;-70
2021/12/11 12:38:04;;;;;;;12.32;5.32;;;4.90;78.60;;;;;;5076100;28;20051;-73
2021/12/11 12:40:35;;;;;;;11.25;4.68;;;4.90;78.30;;;;;;5059983;28;20036;-72
2021/12/11 12:43:10;;;;;;;14.77;5.97;;;4.90;78.20;;;;;;5077501;28;20056;-72
2021/12/11 12:45:41;;;;;;;12.88;6.13;;;4.90;78.10;;;;;;5076116;28;20673;-73
2021/12/11 12:48:11;;;;;;;11.82;5.45;;;4.90;78.10;;;;;;5076135;28;20044;-73
2021/12/11 12:50:41;;;;;;;12.82;5.55;;;5.00;78.20;;;;;;5073430;28;20405;-71
2021/12/11 12:53:11;;;;;;;13.02;5.03;;;4.90;78.10;;;;;;5085358;28;20067;-72
2021/12/11 12:55:42;;;;;;;14.27;5.83;;;4.90;78.00;;;;;;5084382;28;20154;-72
2021/12/11 12:58:13;;;;;;;13.45;4.88;;;4.90;78.00;;;;;;5086149;28;20552;-72
2021/12/11 13:00:48;;;;;;;15.52;5.63;;;4.90;78.20;;;;;;5084549;28;20055;-71
2021/12/11 13:03:21;;;;;;;12.05;5.90;;;4.90;78.10;;;;;;5081421;28;20050;-71
2021/12/11 13:05:52;;;;;;;10.80;5.45;;;4.90;78.00;;;;;;5083383;28;20032;-71
2021/12/11 13:08:23;;;;;;;9.30;4.38;;;5.00;77.70;;;;;;5086311;28;20040;-71
2021/12/11 13:10:52;;;;;;;;;;;5.00;77.40;;;;;;5085283;28;20052;-73
2021/12/11 13:13:23;;;;;;;13.05;3.95;;;5.00;77.50;;;;;;5084168;28;19924;-72
2021/12/11 13:15:53;;;;;;;9.57;5.03;;;5.00;77.30;;;;;;5085151;28;20040;-72